Data for 11/19/2005

Time Sea-Level Adjusted Pressure Absolute Pressure Temperature Relative Humidity Dew Point   
(mb) (inHg) (mb) (inHg) (C) (F) (%) (C) (F)
00:05 1028 30.36 857 25.31 3.3 37.9 69 -1.8 28.7
00:10 1028 30.36 857 25.31 3.3 38 69 -1.7 28.9
00:15 1028 30.36 857 25.31 3.2 37.7 72 -1.5 29.4
00:20 1028 30.36 857 25.31 2.7 36.9 74 -1.5 29.3
00:25 1028 30.36 857 25.31 2.9 37.2 72 -1.7 28.9
00:30 1028 30.36 857 25.31 3.2 37.7 68 -2.1 28.2
00:35 1028 30.36 857 25.31 3.5 38.3 66 -2.2 28
00:40 1028 30.36 857 25.31 3.7 38.6 66 -2.1 28.2
00:45 1028 30.36 857 25.31 3.8 38.8 66 -2.1 28.3
00:50 1028 30.36 857 25.31 3.8 38.8 66 -2 28.5
00:55 1028 30.36 857 25.31 3.7 38.6 66 -2.1 28.3
01:00 1028 30.36 857 25.31 3.6 38.5 66 -2.1 28.3
01:05 1028 30.36 857 25.31 3.8 38.8 66 -2.1 28.3
01:10 1028 30.36 857 25.31 3.8 38.9 65 -2.1 28.3
01:15 1028 30.36 857 25.31 3.9 39 66 -2 28.4
01:20 1028 30.36 857 25.31 3.8 38.8 68 -1.7 29
01:25 1028 30.36 857 25.31 3.3 37.9 70 -1.6 29.2
01:30 1028 30.36 857 25.31 2.8 37 73 -1.6 29.1
01:35 1028 30.36 857 25.31 2.6 36.6 73 -1.7 28.9
01:40 1028 30.36 857 25.31 2.6 36.7 74 -1.6 29.1
01:45 1028 30.36 857 25.31 2.6 36.7 73 -1.7 29
01:50 1028 30.36 857 25.31 2.7 36.9 73 -1.7 29
01:55 1028 30.36 857 25.31 2.7 36.9 74 -1.6 29.2
02:00 1028 30.36 857 25.31 2.4 36.3 75 -1.6 29.1
02:05 1028 30.36 858 25.34 2.2 35.9 76 -1.7 28.9
02:10 1028 30.36 858 25.34 2.1 35.7 76 -1.7 28.9
02:15 1028 30.36 858 25.34 1.9 35.4 77 -1.8 28.8
02:20 1028 30.36 858 25.34 1.8 35.3 77 -1.8 28.8
02:25 1028 30.36 858 25.34 2.1 35.8 75 -1.9 28.7
02:30 1028 30.36 858 25.34 2.4 36.4 73 -1.9 28.5
02:35 1028 30.36 858 25.34 2.7 36.8 73 -1.7 28.9
02:40 1028 30.36 858 25.34 2.3 36.1 76 -1.4 29.4
02:45 1028 30.36 858 25.34 1.5 34.7 81 -1.4 29.5
02:50 1028 30.36 858 25.34 1 33.8 82 -1.7 28.9
02:55 1028 30.36 858 25.34 1.2 34.2 79 -2 28.4
03:00 1028 30.36 858 25.34 1.1 33.9 80 -2 28.4
03:05 1028 30.36 858 25.34 0.9 33.7 82 -1.9 28.7
03:10 1028 30.36 858 25.34 0.7 33.3 81 -2.2 28
03:15 1028 30.36 858 25.34 0.7 33.2 81 -2.3 27.9
03:20 1028 30.36 858 25.34 0.5 32.9 80 -2.5 27.4
03:25 1028 30.36 858 25.34 0.7 33.3 80 -2.4 27.6
03:30 1028 30.36 858 25.34 0.7 33.3 79 -2.5 27.5
03:35 1028 30.36 858 25.34 0.8 33.4 78 -2.6 27.4
03:40 1028 30.36 858 25.34 0.8 33.4 78 -2.6 27.3
03:45 1028 30.36 857 25.31 0.8 33.4 78 -2.5 27.4
03:50 1028 30.36 858 25.34 0.6 33.1 80 -2.4 27.6
03:55 1028 30.36 858 25.34 0.2 32.4 81 -2.6 27.3
04:00 1028 30.36 858 25.34 -0.1 31.9 83 -2.6 27.3
04:05 1028 30.36 858 25.34 -0.3 31.5 82 -3 26.7
04:10 1028 30.36 858 25.34 -0.4 31.2 83 -3 26.5
04:15 1028 30.36 858 25.34 -0.5 31.1 83 -3.1 26.4
04:20 1028 30.36 858 25.34 -0.6 31 83 -3.1 26.4
04:25 1028 30.36 858 25.34 -0.7 30.8 83 -3.3 26.1
04:30 1028 30.36 858 25.34 -0.5 31 82 -3.2 26.2
04:35 1028 30.36 858 25.34 -0.7 30.7 82 -3.4 26
04:40 1028 30.36 857 25.31 -0.9 30.5 83 -3.4 25.8
04:45 1028 30.36 857 25.31 -1 30.3 83 -3.6 25.6
04:50 1028 30.36 858 25.34 -1.1 30 83 -3.7 25.3
04:55 1028 30.36 858 25.34 -0.7 30.7 81 -3.6 25.5
05:00 1028 30.36 858 25.34 -0.5 31.2 80 -3.5 25.7
05:05 1028 30.36 857 25.31 -0.6 31 80 -3.5 25.7
05:10 1028 30.36 858 25.34 -0.8 30.6 81 -3.6 25.6
05:15 1028 30.36 858 25.34 -0.6 30.9 80 -3.6 25.5
05:20 1028 30.36 857 25.31 -0.3 31.4 79 -3.5 25.8
05:25 1028 30.36 858 25.34 0.2 32.3 78 -3.2 26.2
05:30 1028 30.36 858 25.34 0 32.1 79 -3.2 26.2
05:35 1028 30.36 858 25.34 -0.1 31.8 79 -3.3 26.1
05:40 1028 30.36 858 25.34 -0.2 31.6 80 -3.3 26
05:45 1028 30.36 858 25.34 -0.4 31.3 80 -3.4 25.8
05:50 1028 30.36 858 25.34 -0.3 31.4 80 -3.3 26
05:55 1028 30.36 858 25.34 -0.3 31.5 80 -3.3 26.1
06:00 1028 30.36 858 25.34 -0.5 31 81 -3.4 25.9
06:05 1028 30.36 858 25.34 -0.6 30.9 81 -3.4 25.9
06:10 1028 30.36 858 25.34 -0.6 30.9 81 -3.5 25.8
06:15 1029 30.39 858 25.34 -0.9 30.5 82 -3.5 25.7
06:20 1029 30.39 858 25.34 -1.1 30.1 82 -3.7 25.3
06:25 1029 30.39 858 25.34 -1 30.2 81 -3.8 25.1
06:30 1029 30.39 858 25.34 -0.9 30.4 79 -4 24.8
06:35 1029 30.39 858 25.34 -1.4 29.4 82 -4.2 24.5
06:40 1029 30.39 858 25.34 -1.7 29 84 -4.1 24.7
06:45 1029 30.39 858 25.34 -1.1 30.1 81 -4 24.8
06:50 1029 30.39 858 25.34 -1.2 29.8 81 -4 24.8
06:55 1029 30.39 858 25.34 -1.6 29.2 84 -4 24.8
07:00 1029 30.39 858 25.34 -1.4 29.5 83 -3.9 25
07:05 1029 30.39 858 25.34 -1.2 29.9 82 -4 24.9
07:10 1029 30.39 858 25.34 -1.3 29.6 83 -3.9 25
07:15 1029 30.39 858 25.34 -1.2 29.8 82 -3.9 25
07:20 1029 30.39 858 25.34 -1 30.2 81 -3.8 25.2
07:25 1029 30.39 858 25.34 -1.1 30 82 -3.8 25.2
07:30 1029 30.39 858 25.34 -1 30.1 82 -3.8 25.2
07:35 1029 30.39 858 25.34 -0.9 30.4 82 -3.7 25.4
07:40 1029 30.39 858 25.34 -0.9 30.4 81 -3.7 25.3
07:45 1029 30.39 858 25.34 -0.7 30.7 80 -3.7 25.4
07:50 1029 30.39 858 25.34 -0.6 30.9 80 -3.6 25.5
07:55 1029 30.39 858 25.34 -0.5 31.1 79 -3.8 25.2
08:00 1029 30.39 858 25.34 -0.4 31.3 78 -3.8 25.2
08:05 1029 30.39 858 25.34 -0.2 31.7 77 -3.7 25.3
08:10 1029 30.39 858 25.34 0.3 32.5 75 -3.7 25.4
08:15 1029 30.39 858 25.34 0.4 32.7 75 -3.6 25.5
08:20 1029 30.39 858 25.34 0.3 32.6 75 -3.6 25.6
08:25 1029 30.39 858 25.34 0.6 33 73 -3.7 25.4
08:30 1029 30.39 858 25.34 0.8 33.4 73 -3.5 25.6
08:35 1029 30.39 858 25.34 1.1 33.9 71 -3.6 25.5
08:40 1029 30.39 858 25.34 1.3 34.4 71 -3.5 25.8
08:45 1029 30.39 858 25.34 1.1 34 72 -3.3 26
08:50 1029 30.39 859 25.37 1.1 34 72 -3.4 25.9
08:55 1029 30.39 859 25.37 1.3 34.3 72 -3.1 26.3
09:00 1029 30.39 859 25.37 1.5 34.6 72 -3.1 26.4
09:05 1029 30.39 858 25.34 1.6 34.8 71 -3.1 26.4
09:10 1029 30.39 859 25.37 2.1 35.7 68 -3.2 26.3
09:15 1029 30.39 859 25.37 2.3 36.2 68 -2.9 26.8
09:20 1029 30.39 859 25.37 2.8 37 67 -2.8 27
09:25 1029 30.39 859 25.37 3.2 37.8 64 -2.8 26.9
09:30 1029 30.39 859 25.37 3.5 38.2 64 -2.7 27.2
09:35 1029 30.39 859 25.37 3.7 38.6 62 -2.8 26.9
09:40 1029 30.39 859 25.37 4 39.2 61 -2.7 27.1
09:45 1029 30.39 859 25.37 4.8 40.7 59 -2.5 27.5
09:50 1029 30.39 859 25.37 5.3 41.5 58 -2.4 27.7
09:55 1029 30.39 859 25.37 5.9 42.7 56 -2.3 27.9
10:00 1029 30.39 859 25.37 6.3 43.4 55 -1.9 28.6
10:05 1029 30.39 859 25.37 6.1 42.9 57 -1.9 28.6
10:10 1029 30.39 859 25.37 6 42.8 58 -1.7 28.9
10:15 1029 30.39 859 25.37 6.2 43.2 58 -1.3 29.6
10:20 1029 30.39 859 25.37 6.3 43.4 55 -2 28.4
10:25 1029 30.39 859 25.37 6.8 44.2 54 -1.8 28.7
10:30 1029 30.39 859 25.37 7.3 45.1 52 -1.9 28.6
10:35 1029 30.39 858 25.34 7.4 45.4 52 -1.8 28.7
10:40 1029 30.39 858 25.34 7.9 46.2 49 -2.1 28.2
10:45 1029 30.39 858 25.34 8 46.4 50 -1.9 28.7
10:50 1029 30.39 858 25.34 7.8 46 50 -2 28.5
10:55 1029 30.39 858 25.34 7.9 46.3 50 -1.7 28.9
11:00 1029 30.39 858 25.34 7.7 45.9 52 -1.5 29.3
11:05 1029 30.39 858 25.34 7.2 44.9 53 -1.8 28.8
11:10 1029 30.39 858 25.34 7.1 44.7 53 -1.7 28.9
11:15 1029 30.39 858 25.34 7.1 44.9 54 -1.6 29.2
11:20 1029 30.39 858 25.34 7.6 45.6 52 -1.7 29
11:25 1029 30.39 858 25.34 7.5 45.6 53 -1.4 29.5
11:30 1029 30.39 858 25.34 7.1 44.7 58 -0.6 30.9
11:35 1029 30.39 858 25.34 6.9 44.4 57 -0.9 30.3
11:40 1029 30.39 858 25.34 6.9 44.5 57 -0.9 30.5
11:45 1029 30.39 858 25.34 7.3 45.1 57 -0.6 31
11:50 1029 30.39 858 25.34 7.4 45.3 56 -0.7 30.7
11:55 1029 30.39 858 25.34 7.5 45.4 56 -0.8 30.5
12:00 1029 30.39 858 25.34 7 44.6 58 -0.7 30.7
12:05 1029 30.39 858 25.34 6.9 44.4 58 -0.8 30.5
12:10 1029 30.39 858 25.34 6 42.8 62 -0.8 30.5
12:15 1029 30.39 858 25.34 6.3 43.3 60 -0.8 30.6
12:20 1028 30.36 858 25.34 6.4 43.6 61 -0.6 30.9
12:25 1028 30.36 858 25.34 6.5 43.7 59 -0.9 30.5
12:30 1028 30.36 858 25.34 7.1 44.8 58 -0.7 30.8
12:35 1028 30.36 858 25.34 7.6 45.6 56 -0.6 30.9
12:40 1028 30.36 858 25.34 7.9 46.1 55 -0.6 30.9
12:45 1028 30.36 857 25.31 7.3 45.2 59 -0.2 31.7
12:50 1028 30.36 857 25.31 7.3 45.1 57 -0.7 30.8
12:55 1028 30.36 857 25.31 8.2 46.8 52 -1 30.2
13:00 1028 30.36 857 25.31 8.9 48 51 -0.6 30.9
13:05 1028 30.36 857 25.31 8.8 47.9 51 -0.6 30.9
13:10 1028 30.36 857 25.31 9 48.2 51 -0.6 31
13:15 1028 30.36 857 25.31 9.1 48.3 50 -0.6 30.8
13:20 1028 30.36 857 25.31 8.9 48.1 52 -0.5 31.1
13:25 1028 30.36 857 25.31 8.2 46.8 55 -0.3 31.4
13:30 1028 30.36 857 25.31 8.3 46.9 52 -0.8 30.5
13:35 1028 30.36 857 25.31 8.6 47.5 53 -0.5 31
13:40 1028 30.36 857 25.31 8 46.5 55 -0.5 31.2
13:45 1028 30.36 857 25.31 8.1 46.6 53 -0.9 30.4
13:50 1028 30.36 857 25.31 8.8 47.8 51 -0.8 30.5
13:55 1028 30.36 857 25.31 9.3 48.8 49 -0.9 30.4
14:00 1028 30.36 857 25.31 9.6 49.2 49 -0.7 30.8
14:05 1028 30.36 857 25.31 9.5 49 49 -0.7 30.7
14:10 1028 30.36 857 25.31 9.7 49.4 48 -0.8 30.6
14:15 1028 30.36 857 25.31 9.5 49 50 -0.5 31.1
14:20 1028 30.36 857 25.31 9.7 49.4 47 -1 30.1
14:25 1028 30.36 857 25.31 10.4 50.6 45 -1.1 30.1
14:30 1028 30.36 857 25.31 10.3 50.6 43 -1.5 29.3
14:35 1028 30.36 857 25.31 9.4 48.8 48 -1.1 30
14:40 1028 30.36 857 25.31 9.2 48.5 47 -1.4 29.4
14:45 1028 30.36 857 25.31 9.4 48.9 48 -1.1 30
14:50 1028 30.36 857 25.31 9.2 48.5 47 -1.4 29.4
14:55 1028 30.36 857 25.31 9.1 48.5 48 -1.3 29.7
15:00 1028 30.36 857 25.31 9.2 48.5 50 -0.8 30.6
15:05 1028 30.36 857 25.31 8.8 47.8 50 -0.9 30.3
15:10 1028 30.36 857 25.31 9.6 49.2 46 -1.4 29.4
15:15 1028 30.36 857 25.31 9.6 49.3 48 -0.9 30.4
15:20 1028 30.36 857 25.31 9.2 48.5 48 -1.3 29.7
15:25 1028 30.36 857 25.31 9.3 48.7 48 -1.3 29.7
15:30 1028 30.36 857 25.31 8.5 47.3 52 -0.8 30.6
15:35 1028 30.36 857 25.31 7.9 46.3 53 -1 30.2
15:40 1028 30.36 857 25.31 7.7 45.8 54 -1 30.2
15:45 1028 30.36 857 25.31 7.6 45.7 55 -0.9 30.3
15:50 1028 30.36 857 25.31 7.9 46.2 53 -1.1 30.1
15:55 1028 30.36 857 25.31 7.5 45.6 54 -1.1 30
16:00 1028 30.36 857 25.31 7.5 45.4 54 -1.2 29.8
16:05 1028 30.36 857 25.31 7.5 45.6 54 -1.2 29.9
16:10 1028 30.36 857 25.31 7.5 45.4 54 -1.1 30
16:15 1028 30.36 857 25.31 7.5 45.4 55 -0.9 30.3
16:20 1028 30.36 857 25.31 7 44.5 56 -1.1 30
16:25 1028 30.36 857 25.31 6.5 43.8 55 -1.7 28.9
16:30 1028 30.36 857 25.31 6.1 42.9 58 -1.5 29.3
16:35 1028 30.36 857 25.31 6 42.8 58 -1.7 29
16:40 1028 30.36 857 25.31 5.3 41.5 60 -1.8 28.8
16:45 1028 30.36 857 25.31 4.6 40.2 63 -1.8 28.7
16:50 1028 30.36 857 25.31 4.6 40.2 62 -2.1 28.3
16:55 1028 30.36 857 25.31 4.6 40.3 61 -2.2 28.1
17:00 1028 30.36 857 25.31 4.1 39.5 63 -2.3 27.9
17:05 1028 30.36 857 25.31 3.9 39 63 -2.5 27.5
17:10 1028 30.36 857 25.31 3.9 39 62 -2.6 27.2
17:15 1028 30.36 857 25.31 3.8 38.8 63 -2.7 27.2
17:20 1028 30.36 857 25.31 3.6 38.5 63 -2.7 27.1
17:25 1028 30.36 857 25.31 3.4 38 64 -2.8 26.9
17:30 1028 30.36 857 25.31 3.3 38 63 -3 26.6
17:35 1028 30.36 857 25.31 3.4 38.2 63 -3 26.6
17:40 1028 30.36 857 25.31 3.3 38 63 -3 26.6
17:45 1028 30.36 857 25.31 3.3 37.9 63 -3.1 26.4
17:50 1028 30.36 857 25.31 2.9 37.1 65 -3.1 26.5
17:55 1027 30.33 857 25.31 2.4 36.3 66 -3.3 26.1
18:00 1027 30.33 857 25.31 2.3 36.2 66 -3.4 26
18:05 1027 30.33 857 25.31 2.4 36.4 65 -3.4 25.8
18:10 1028 30.36 857 25.31 2.5 36.5 65 -3.4 25.8
18:15 1028 30.36 857 25.31 2.3 36.2 66 -3.4 25.8
18:20 1028 30.36 857 25.31 2.1 35.9 66 -3.6 25.5
18:25 1028 30.36 857 25.31 2 35.6 66 -3.7 25.3
18:30 1028 30.36 857 25.31 1.7 35 68 -3.7 25.4
18:35 1028 30.36 857 25.31 1.5 34.7 68 -3.7 25.3
18:40 1028 30.36 857 25.31 1.3 34.3 69 -3.8 25.1
18:45 1028 30.36 857 25.31 1.3 34.4 68 -4 24.9
18:50 1028 30.36 857 25.31 1.3 34.4 68 -3.9 24.9
18:55 1028 30.36 857 25.31 1.2 34.2 68 -4 24.7
19:00 1028 30.36 857 25.31 1.3 34.4 67 -4.2 24.4
19:05 1028 30.36 857 25.31 1.7 35 65 -4.2 24.4
19:10 1028 30.36 857 25.31 2 35.6 63 -4.4 24.1
19:15 1028 30.36 857 25.31 2.2 35.9 62 -4.4 24.1
19:20 1028 30.36 857 25.31 2.2 36 62 -4.4 24.1
19:25 1028 30.36 857 25.31 2.2 36 61 -4.4 24
19:30 1028 30.36 857 25.31 2.1 35.7 63 -4.3 24.2
19:35 1028 30.36 857 25.31 1.8 35.2 64 -4.4 24.1
19:40 1028 30.36 857 25.31 1.6 34.9 64 -4.4 24.1
19:45 1028 30.36 857 25.31 1.7 35.1 63 -4.6 23.8
19:50 1028 30.36 857 25.31 1.8 35.2 63 -4.5 23.9
19:55 1028 30.36 857 25.31 1.6 34.9 64 -4.5 23.9
20:00 1028 30.36 857 25.31 1.3 34.4 65 -4.6 23.7
20:05 1028 30.36 857 25.31 1.3 34.3 65 -4.6 23.7
20:10 1028 30.36 857 25.31 1.2 34.2 66 -4.5 24
20:15 1028 30.36 857 25.31 1.4 34.5 64 -4.8 23.4
20:20 1028 30.36 857 25.31 1.4 34.5 63 -4.9 23.3
20:25 1028 30.36 857 25.31 1.8 35.2 61 -4.9 23.1
20:30 1028 30.36 857 25.31 1.9 35.5 61 -4.8 23.3
20:35 1028 30.36 857 25.31 1.8 35.3 62 -4.6 23.7
20:40 1027 30.33 857 25.31 1.6 34.9 63 -4.7 23.5
20:45 1027 30.33 857 25.31 1.4 34.6 64 -4.6 23.7
20:50 1027 30.33 857 25.31 1.2 34.1 65 -4.6 23.7
20:55 1027 30.33 857 25.31 1.2 34.1 65 -4.7 23.5
21:00 1027 30.33 857 25.31 1.2 34.2 65 -4.7 23.5
21:05 1027 30.33 857 25.31 1.3 34.4 65 -4.5 23.8
21:10 1027 30.33 857 25.31 1.1 34.1 66 -4.5 23.9
21:15 1027 30.33 857 25.31 1.3 34.3 64 -4.7 23.5
21:20 1027 30.33 856 25.28 1.6 34.9 63 -4.7 23.5
21:25 1027 30.33 856 25.28 1.7 35.1 61 -4.9 23.1
21:30 1027 30.33 856 25.28 1.5 34.7 63 -4.9 23.2
21:35 1027 30.33 856 25.28 0.9 33.6 63 -5.2 22.6
21:40 1027 30.33 856 25.28 1 33.7 63 -5.3 22.4
21:45 1027 30.33 856 25.28 0.9 33.7 63 -5.4 22.3
21:50 1027 30.33 856 25.28 1.1 33.9 63 -5.3 22.5
21:55 1027 30.33 856 25.28 1 33.9 64 -5.1 22.8
22:00 1027 30.33 856 25.28 0.9 33.6 65 -4.9 23.2
22:05 1027 30.33 857 25.31 0.8 33.4 65 -5 23
22:10 1027 30.33 857 25.31 1.1 33.9 64 -4.9 23.2
22:15 1027 30.33 857 25.31 1 33.8 64 -5 23
22:20 1027 30.33 857 25.31 1 33.9 62 -5.4 22.3
22:25 1027 30.33 857 25.31 1.3 34.3 61 -5.4 22.2
22:30 1027 30.33 857 25.31 1.5 34.7 60 -5.4 22.3
22:35 1027 30.33 857 25.31 1.5 34.7 60 -5.3 22.4
22:40 1027 30.33 857 25.31 1.4 34.5 60 -5.6 22
22:45 1027 30.33 857 25.31 1.7 35.1 58 -5.8 21.6
22:50 1027 30.33 857 25.31 1.4 34.6 60 -5.5 22
22:55 1027 30.33 857 25.31 1 33.9 61 -5.6 21.9
23:00 1027 30.33 857 25.31 1.2 34.2 60 -5.7 21.7
23:05 1027 30.33 857 25.31 1.1 33.9 61 -5.5 22.1
23:10 1027 30.33 857 25.31 0.7 33.2 64 -5.4 22.3
23:15 1027 30.33 857 25.31 0.5 32.9 66 -5.2 22.7
23:20 1027 30.33 857 25.31 0.5 33 66 -5 23
23:25 1027 30.33 857 25.31 0.5 32.9 66 -5.1 22.8
23:30 1027 30.33 857 25.31 0.3 32.6 65 -5.6 21.9
23:35 1027 30.33 857 25.31 0.1 32.2 66 -5.5 22.1
23:40 1027 30.33 857 25.31 0.1 32.1 66 -5.5 22
23:45 1027 30.33 857 25.31 0.6 33 64 -5.5 22.2
23:50 1027 30.33 857 25.31 0.6 33 65 -5.3 22.4
23:55 1027 30.33 857 25.31 0.6 33.1 65 -5.2 22.6
24:00 1027 30.33 857 25.31 1 33.7 64 -5.2 22.6